7TX4 weather

Hillcrest Airport
Keller, Texas, United States

Public forecast

Using degrees Fahrenheit for public forecast. Weather courtesy of forecast.io.

METAR (pilot weather report)

Closest report is Fort Worth Alliance Airport, 2.5 nm (4.7 km) WNW. Retrieved 2019/09/22 06:53 UTC (56 minutes ago):

KAFW 220653Z 17015KT 10SM CLR 27/20 A2997 RMK AO2 SLP132 T02720200

TAF (pilot weather forecast)

Closest forecast is Fort Worth Alliance Airport, 2.5 nm (4.7 km) WNW. Retrieved 2019/09/22 06:22 UTC (1 hour ago):

TAF KAFW 220520Z 2206/2306 15015KT P6SM FEW060 SCT200 FM221100 17013KT P6SM BKN025 BKN250 FM221500 18016KT P6SM SCT060